sensor_id;sensor_type;location;lat;lon;timestamp;temperature;humidity
61591;DHT22;57639;52.410;-1.966;2022-12-18T00:01:42;16.30;42.20
61591;DHT22;57639;52.410;-1.966;2022-12-18T00:04:48;16.30;42.30
61591;DHT22;57639;52.410;-1.966;2022-12-18T00:07:52;16.20;42.30
61591;DHT22;57639;52.410;-1.966;2022-12-18T00:11:03;16.20;42.40
61591;DHT22;57639;52.410;-1.966;2022-12-18T00:14:13;16.10;42.40
61591;DHT22;57639;52.410;-1.966;2022-12-18T00:17:19;16.10;42.40
61591;DHT22;57639;52.410;-1.966;2022-12-18T00:20:25;16.10;42.50
61591;DHT22;57639;52.410;-1.966;2022-12-18T00:23:32;16.10;42.50
61591;DHT22;57639;52.410;-1.966;2022-12-18T00:26:38;16.00;42.50
61591;DHT22;57639;52.410;-1.966;2022-12-18T00:29:46;16.00;42.50
61591;DHT22;57639;52.410;-1.966;2022-12-18T00:32:54;16.00;42.50
61591;DHT22;57639;52.410;-1.966;2022-12-18T00:36:01;16.00;42.40
61591;DHT22;57639;52.410;-1.966;2022-12-18T00:39:09;15.90;42.40
61591;DHT22;57639;52.410;-1.966;2022-12-18T00:42:13;15.90;42.30
61591;DHT22;57639;52.410;-1.966;2022-12-18T00:45:38;15.90;42.30
61591;DHT22;57639;52.410;-1.966;2022-12-18T00:48:44;15.80;42.30
61591;DHT22;57639;52.410;-1.966;2022-12-18T00:51:48;15.80;42.20
61591;DHT22;57639;52.410;-1.966;2022-12-18T00:54:54;15.80;42.30
61591;DHT22;57639;52.410;-1.966;2022-12-18T00:58:03;15.80;42.30
61591;DHT22;57639;52.410;-1.966;2022-12-18T01:01:12;15.70;42.30
61591;DHT22;57639;52.410;-1.966;2022-12-18T01:04:18;15.70;42.30
61591;DHT22;57639;52.410;-1.966;2022-12-18T01:07:25;15.70;42.30
61591;DHT22;57639;52.410;-1.966;2022-12-18T01:10:31;15.60;42.30
61591;DHT22;57639;52.410;-1.966;2022-12-18T01:13:37;15.60;42.40
61591;DHT22;57639;52.410;-1.966;2022-12-18T01:16:44;15.60;42.40
61591;DHT22;57639;52.410;-1.966;2022-12-18T01:19:51;15.60;42.30
61591;DHT22;57639;52.410;-1.966;2022-12-18T01:22:57;15.60;42.40
61591;DHT22;57639;52.410;-1.966;2022-12-18T01:26:11;15.50;42.40
61591;DHT22;57639;52.410;-1.966;2022-12-18T01:29:17;15.50;42.30
61591;DHT22;57639;52.410;-1.966;2022-12-18T01:32:29;15.50;42.20
61591;DHT22;57639;52.410;-1.966;2022-12-18T01:35:40;15.50;42.10
61591;DHT22;57639;52.410;-1.966;2022-12-18T01:38:47;15.50;42.20
61591;DHT22;57639;52.410;-1.966;2022-12-18T01:41:52;15.50;42.10
61591;DHT22;57639;52.410;-1.966;2022-12-18T01:45:24;15.40;42.20
61591;DHT22;57639;52.410;-1.966;2022-12-18T01:48:33;15.40;42.10
61591;DHT22;57639;52.410;-1.966;2022-12-18T01:51:39;15.40;42.10
61591;DHT22;57639;52.410;-1.966;2022-12-18T01:54:43;15.40;42.10
61591;DHT22;57639;52.410;-1.966;2022-12-18T01:57:53;15.40;42.00
61591;DHT22;57639;52.410;-1.966;2022-12-18T02:00:59;15.40;42.10
61591;DHT22;57639;52.410;-1.966;2022-12-18T02:04:24;15.30;42.00
61591;DHT22;57639;52.410;-1.966;2022-12-18T02:07:36;15.30;42.10
61591;DHT22;57639;52.410;-1.966;2022-12-18T02:10:48;15.30;42.10
61591;DHT22;57639;52.410;-1.966;2022-12-18T02:14:04;15.30;42.10
61591;DHT22;57639;52.410;-1.966;2022-12-18T02:17:17;15.30;42.10
61591;DHT22;57639;52.410;-1.966;2022-12-18T02:20:32;15.20;42.20
61591;DHT22;57639;52.410;-1.966;2022-12-18T02:23:49;15.20;42.10
61591;DHT22;57639;52.410;-1.966;2022-12-18T02:27:01;15.10;42.00
61591;DHT22;57639;52.410;-1.966;2022-12-18T02:30:09;15.10;42.10
61591;DHT22;57639;52.410;-1.966;2022-12-18T02:33:16;15.10;42.10
61591;DHT22;57639;52.410;-1.966;2022-12-18T02:36:22;15.10;42.10
61591;DHT22;57639;52.410;-1.966;2022-12-18T02:39:29;15.10;42.10
61591;DHT22;57639;52.410;-1.966;2022-12-18T02:42:38;15.10;42.00
61591;DHT22;57639;52.410;-1.966;2022-12-18T02:45:50;15.10;42.00
61591;DHT22;57639;52.410;-1.966;2022-12-18T02:49:11;15.10;42.10
61591;DHT22;57639;52.410;-1.966;2022-12-18T02:52:24;15.10;42.10
61591;DHT22;57639;52.410;-1.966;2022-12-18T02:55:42;15.10;42.10
61591;DHT22;57639;52.410;-1.966;2022-12-18T02:58:56;15.10;42.10
61591;DHT22;57639;52.410;-1.966;2022-12-18T03:02:08;15.10;42.00
61591;DHT22;57639;52.410;-1.966;2022-12-18T03:05:27;15.00;42.00
61591;DHT22;57639;52.410;-1.966;2022-12-18T03:08:37;15.00;42.00
61591;DHT22;57639;52.410;-1.966;2022-12-18T03:11:49;15.00;41.90
61591;DHT22;57639;52.410;-1.966;2022-12-18T03:15:18;15.00;42.00
61591;DHT22;57639;52.410;-1.966;2022-12-18T03:18:30;15.00;42.00
61591;DHT22;57639;52.410;-1.966;2022-12-18T03:21:42;15.00;42.00
61591;DHT22;57639;52.410;-1.966;2022-12-18T03:24:49;15.00;42.00
61591;DHT22;57639;52.410;-1.966;2022-12-18T03:28:00;14.90;42.00
61591;DHT22;57639;52.410;-1.966;2022-12-18T03:31:11;15.00;42.00
61591;DHT22;57639;52.410;-1.966;2022-12-18T03:34:23;14.90;42.10
61591;DHT22;57639;52.410;-1.966;2022-12-18T03:37:31;14.90;42.10
61591;DHT22;57639;52.410;-1.966;2022-12-18T03:40:45;14.90;42.10
61591;DHT22;57639;52.410;-1.966;2022-12-18T03:44:00;14.90;42.10
61591;DHT22;57639;52.410;-1.966;2022-12-18T03:47:09;14.80;42.20
61591;DHT22;57639;52.410;-1.966;2022-12-18T03:50:23;14.80;42.20
61591;DHT22;57639;52.410;-1.966;2022-12-18T03:53:36;14.80;42.30
61591;DHT22;57639;52.410;-1.966;2022-12-18T03:56:49;14.70;42.30
61591;DHT22;57639;52.410;-1.966;2022-12-18T04:00:04;14.70;42.40
61591;DHT22;57639;52.410;-1.966;2022-12-18T04:03:12;14.70;42.40
61591;DHT22;57639;52.410;-1.966;2022-12-18T04:06:21;14.60;42.40
61591;DHT22;57639;52.410;-1.966;2022-12-18T04:09:27;14.60;42.40
61591;DHT22;57639;52.410;-1.966;2022-12-18T04:12:34;14.60;42.40
61591;DHT22;57639;52.410;-1.966;2022-12-18T04:15:40;14.60;42.40
61591;DHT22;57639;52.410;-1.966;2022-12-18T04:18:47;14.60;42.50
61591;DHT22;57639;52.410;-1.966;2022-12-18T04:21:53;14.60;42.50
61591;DHT22;57639;52.410;-1.966;2022-12-18T04:24:59;14.60;42.60
61591;DHT22;57639;52.410;-1.966;2022-12-18T04:28:05;14.60;42.60
61591;DHT22;57639;52.410;-1.966;2022-12-18T04:31:12;14.50;42.60
61591;DHT22;57639;52.410;-1.966;2022-12-18T04:34:22;14.60;42.70
61591;DHT22;57639;52.410;-1.966;2022-12-18T04:37:28;14.50;42.80
61591;DHT22;57639;52.410;-1.966;2022-12-18T04:40:34;14.50;42.80
61591;DHT22;57639;52.410;-1.966;2022-12-18T04:43:40;14.50;42.90
61591;DHT22;57639;52.410;-1.966;2022-12-18T04:46:44;14.40;42.90
61591;DHT22;57639;52.410;-1.966;2022-12-18T04:49:53;14.40;43.00
61591;DHT22;57639;52.410;-1.966;2022-12-18T04:52:57;14.40;43.00
61591;DHT22;57639;52.410;-1.966;2022-12-18T04:56:05;14.40;43.10
61591;DHT22;57639;52.410;-1.966;2022-12-18T04:59:10;14.40;43.10
61591;DHT22;57639;52.410;-1.966;2022-12-18T05:02:17;14.40;43.20
61591;DHT22;57639;52.410;-1.966;2022-12-18T05:05:26;14.30;43.20
61591;DHT22;57639;52.410;-1.966;2022-12-18T05:08:30;14.30;43.30
61591;DHT22;57639;52.410;-1.966;2022-12-18T05:11:36;14.30;43.20
61591;DHT22;57639;52.410;-1.966;2022-12-18T05:14:42;14.30;43.20
61591;DHT22;57639;52.410;-1.966;2022-12-18T05:17:46;14.30;43.20
61591;DHT22;57639;52.410;-1.966;2022-12-18T05:20:55;14.30;43.20
61591;DHT22;57639;52.410;-1.966;2022-12-18T05:24:01;14.30;43.10
61591;DHT22;57639;52.410;-1.966;2022-12-18T05:27:06;14.30;43.10
61591;DHT22;57639;52.410;-1.966;2022-12-18T05:30:13;14.20;43.00
61591;DHT22;57639;52.410;-1.966;2022-12-18T05:33:19;14.20;43.00
61591;DHT22;57639;52.410;-1.966;2022-12-18T05:36:28;14.20;43.00
61591;DHT22;57639;52.410;-1.966;2022-12-18T05:39:34;14.30;42.90
61591;DHT22;57639;52.410;-1.966;2022-12-18T05:42:40;14.30;42.90
61591;DHT22;57639;52.410;-1.966;2022-12-18T05:45:45;14.20;42.90
61591;DHT22;57639;52.410;-1.966;2022-12-18T05:48:52;14.20;42.90
61591;DHT22;57639;52.410;-1.966;2022-12-18T05:51:59;14.20;42.80
61591;DHT22;57639;52.410;-1.966;2022-12-18T05:55:06;14.20;42.90
61591;DHT22;57639;52.410;-1.966;2022-12-18T05:58:13;14.10;42.90
61591;DHT22;57639;52.410;-1.966;2022-12-18T06:01:22;14.10;43.00
61591;DHT22;57639;52.410;-1.966;2022-12-18T06:04:30;14.10;43.00
61591;DHT22;57639;52.410;-1.966;2022-12-18T06:07:40;14.10;43.10
61591;DHT22;57639;52.410;-1.966;2022-12-18T06:10:50;14.10;43.20
61591;DHT22;57639;52.410;-1.966;2022-12-18T06:13:57;14.10;43.20
61591;DHT22;57639;52.410;-1.966;2022-12-18T06:17:05;14.10;43.30
61591;DHT22;57639;52.410;-1.966;2022-12-18T06:20:09;14.00;43.30
61591;DHT22;57639;52.410;-1.966;2022-12-18T06:23:18;14.00;43.40
61591;DHT22;57639;52.410;-1.966;2022-12-18T06:26:23;14.00;43.40
61591;DHT22;57639;52.410;-1.966;2022-12-18T06:29:29;14.00;43.40
61591;DHT22;57639;52.410;-1.966;2022-12-18T06:32:35;14.00;43.50
61591;DHT22;57639;52.410;-1.966;2022-12-18T06:35:39;13.90;43.50
61591;DHT22;57639;52.410;-1.966;2022-12-18T06:38:48;13.90;43.50
61591;DHT22;57639;52.410;-1.966;2022-12-18T06:41:54;13.90;43.50
61591;DHT22;57639;52.410;-1.966;2022-12-18T06:45:00;13.90;43.50
61591;DHT22;57639;52.410;-1.966;2022-12-18T06:48:06;13.80;43.50
61591;DHT22;57639;52.410;-1.966;2022-12-18T06:51:16;13.80;43.60
61591;DHT22;57639;52.410;-1.966;2022-12-18T06:54:25;13.80;43.60
61591;DHT22;57639;52.410;-1.966;2022-12-18T06:57:31;13.80;43.60
61591;DHT22;57639;52.410;-1.966;2022-12-18T07:00:37;13.80;43.60
61591;DHT22;57639;52.410;-1.966;2022-12-18T07:03:43;13.70;43.70
61591;DHT22;57639;52.410;-1.966;2022-12-18T07:06:49;13.70;43.70
61591;DHT22;57639;52.410;-1.966;2022-12-18T07:09:58;13.70;43.70
61591;DHT22;57639;52.410;-1.966;2022-12-18T07:13:02;13.70;43.80
61591;DHT22;57639;52.410;-1.966;2022-12-18T07:16:11;13.70;43.70
61591;DHT22;57639;52.410;-1.966;2022-12-18T07:19:15;13.60;43.80
61591;DHT22;57639;52.410;-1.966;2022-12-18T07:22:22;13.60;43.80
61591;DHT22;57639;52.410;-1.966;2022-12-18T07:25:29;13.60;43.80
61591;DHT22;57639;52.410;-1.966;2022-12-18T07:28:36;13.60;43.80
61591;DHT22;57639;52.410;-1.966;2022-12-18T07:31:42;13.60;43.70
61591;DHT22;57639;52.410;-1.966;2022-12-18T07:34:48;13.60;43.70
61591;DHT22;57639;52.410;-1.966;2022-12-18T07:37:53;13.60;43.60
61591;DHT22;57639;52.410;-1.966;2022-12-18T07:41:05;13.60;43.60
61591;DHT22;57639;52.410;-1.966;2022-12-18T07:44:12;13.60;43.50
61591;DHT22;57639;52.410;-1.966;2022-12-18T07:47:18;13.70;43.50
61591;DHT22;57639;52.410;-1.966;2022-12-18T07:50:24;13.80;43.50
61591;DHT22;57639;52.410;-1.966;2022-12-18T07:53:31;14.00;43.30
61591;DHT22;57639;52.410;-1.966;2022-12-18T07:56:40;14.20;43.10
61591;DHT22;57639;52.410;-1.966;2022-12-18T07:59:46;14.50;42.90
61591;DHT22;57639;52.410;-1.966;2022-12-18T08:02:52;14.70;42.60
61591;DHT22;57639;52.410;-1.966;2022-12-18T08:05:59;15.00;42.40
61591;DHT22;57639;52.410;-1.966;2022-12-18T08:09:05;15.20;42.10
61591;DHT22;57639;52.410;-1.966;2022-12-18T08:12:14;15.40;41.80
61591;DHT22;57639;52.410;-1.966;2022-12-18T08:15:20;15.60;41.50
61591;DHT22;57639;52.410;-1.966;2022-12-18T08:18:27;15.80;41.30
61591;DHT22;57639;52.410;-1.966;2022-12-18T08:21:37;16.00;41.00
61591;DHT22;57639;52.410;-1.966;2022-12-18T08:24:43;16.10;40.80
61591;DHT22;57639;52.410;-1.966;2022-12-18T08:27:52;16.30;40.70
61591;DHT22;57639;52.410;-1.966;2022-12-18T08:31:03;16.40;40.50
61591;DHT22;57639;52.410;-1.966;2022-12-18T08:34:10;16.50;40.30
61591;DHT22;57639;52.410;-1.966;2022-12-18T08:37:16;16.60;40.20
61591;DHT22;57639;52.410;-1.966;2022-12-18T08:40:22;16.60;40.10
61591;DHT22;57639;52.410;-1.966;2022-12-18T08:43:31;16.60;40.10
61591;DHT22;57639;52.410;-1.966;2022-12-18T08:46:53;16.70;40.10
61591;DHT22;57639;52.410;-1.966;2022-12-18T08:49:59;16.60;40.20
61591;DHT22;57639;52.410;-1.966;2022-12-18T08:53:03;16.60;40.30
61591;DHT22;57639;52.410;-1.966;2022-12-18T08:56:09;16.60;40.40
61591;DHT22;57639;52.410;-1.966;2022-12-18T08:59:19;16.60;40.40
61591;DHT22;57639;52.410;-1.966;2022-12-18T09:02:26;16.40;40.50
61591;DHT22;57639;52.410;-1.966;2022-12-18T09:05:30;16.40;40.50
61591;DHT22;57639;52.410;-1.966;2022-12-18T09:08:36;16.40;40.40
61591;DHT22;57639;52.410;-1.966;2022-12-18T09:11:40;16.30;40.60
61591;DHT22;57639;52.410;-1.966;2022-12-18T09:14:53;16.20;40.60
61591;DHT22;57639;52.410;-1.966;2022-12-18T09:18:08;16.20;40.70
61591;DHT22;57639;52.410;-1.966;2022-12-18T09:21:28;16.10;40.80
61591;DHT22;57639;52.410;-1.966;2022-12-18T09:24:33;16.10;41.00
61591;DHT22;57639;52.410;-1.966;2022-12-18T09:27:39;15.90;41.10
61591;DHT22;57639;52.410;-1.966;2022-12-18T09:30:48;15.90;41.10
61591;DHT22;57639;52.410;-1.966;2022-12-18T09:33:57;15.80;41.00
61591;DHT22;57639;52.410;-1.966;2022-12-18T09:37:03;15.70;41.30
61591;DHT22;57639;52.410;-1.966;2022-12-18T09:40:13;15.70;41.60
61591;DHT22;57639;52.410;-1.966;2022-12-18T09:43:26;15.70;41.30
61591;DHT22;57639;52.410;-1.966;2022-12-18T09:46:43;15.70;41.80
61591;DHT22;57639;52.410;-1.966;2022-12-18T09:49:53;15.70;42.10
61591;DHT22;57639;52.410;-1.966;2022-12-18T09:53:04;15.70;42.40
61591;DHT22;57639;52.410;-1.966;2022-12-18T09:56:16;15.70;42.60
61591;DHT22;57639;52.410;-1.966;2022-12-18T09:59:31;15.70;42.50
61591;DHT22;57639;52.410;-1.966;2022-12-18T10:02:43;15.70;42.50
61591;DHT22;57639;52.410;-1.966;2022-12-18T10:05:57;15.70;43.00
61591;DHT22;57639;52.410;-1.966;2022-12-18T10:09:09;15.80;43.30
61591;DHT22;57639;52.410;-1.966;2022-12-18T10:12:23;16.00;43.20
61591;DHT22;57639;52.410;-1.966;2022-12-18T10:15:34;16.20;43.30
61591;DHT22;57639;52.410;-1.966;2022-12-18T10:19:00;16.50;43.20
61591;DHT22;57639;52.410;-1.966;2022-12-18T10:22:14;16.70;42.80
61591;DHT22;57639;52.410;-1.966;2022-12-18T10:25:24;16.80;42.60
61591;DHT22;57639;52.410;-1.966;2022-12-18T10:28:30;17.00;42.20
61591;DHT22;57639;52.410;-1.966;2022-12-18T10:31:39;17.10;42.00
61591;DHT22;57639;52.410;-1.966;2022-12-18T10:34:51;17.30;41.70
61591;DHT22;57639;52.410;-1.966;2022-12-18T10:38:05;17.40;41.70
61591;DHT22;57639;52.410;-1.966;2022-12-18T10:41:25;17.60;41.50
61591;DHT22;57639;52.410;-1.966;2022-12-18T10:44:33;17.60;41.40
61591;DHT22;57639;52.410;-1.966;2022-12-18T10:47:42;17.60;41.20
61591;DHT22;57639;52.410;-1.966;2022-12-18T10:50:52;17.60;41.20
61591;DHT22;57639;52.410;-1.966;2022-12-18T10:53:58;17.60;41.10
61591;DHT22;57639;52.410;-1.966;2022-12-18T10:57:17;17.60;40.90
61591;DHT22;57639;52.410;-1.966;2022-12-18T11:00:24;17.60;41.20
61591;DHT22;57639;52.410;-1.966;2022-12-18T11:03:33;17.60;41.50
61591;DHT22;57639;52.410;-1.966;2022-12-18T11:06:56;17.50;41.40
61591;DHT22;57639;52.410;-1.966;2022-12-18T11:10:03;17.50;41.80
61591;DHT22;57639;52.410;-1.966;2022-12-18T11:13:18;17.40;42.30
61591;DHT22;57639;52.410;-1.966;2022-12-18T11:16:26;17.30;42.60
61591;DHT22;57639;52.410;-1.966;2022-12-18T11:19:33;17.30;42.50
61591;DHT22;57639;52.410;-1.966;2022-12-18T11:22:43;17.20;42.90
61591;DHT22;57639;52.410;-1.966;2022-12-18T11:25:51;17.10;43.30
61591;DHT22;57639;52.410;-1.966;2022-12-18T11:29:08;17.10;43.00
61591;DHT22;57639;52.410;-1.966;2022-12-18T11:32:27;17.10;43.00
61591;DHT22;57639;52.410;-1.966;2022-12-18T11:35:47;17.20;43.10
61591;DHT22;57639;52.410;-1.966;2022-12-18T11:38:56;17.30;43.40
61591;DHT22;57639;52.410;-1.966;2022-12-18T11:42:10;17.40;43.30
61591;DHT22;57639;52.410;-1.966;2022-12-18T11:45:26;17.60;43.20
61591;DHT22;57639;52.410;-1.966;2022-12-18T11:48:37;17.60;42.90
61591;DHT22;57639;52.410;-1.966;2022-12-18T11:51:51;17.70;42.70
61591;DHT22;57639;52.410;-1.966;2022-12-18T11:55:09;17.80;42.60
61591;DHT22;57639;52.410;-1.966;2022-12-18T11:58:26;18.00;42.50
61591;DHT22;57639;52.410;-1.966;2022-12-18T12:01:41;18.10;42.40
61591;DHT22;57639;52.410;-1.966;2022-12-18T12:05:12;18.10;42.40
61591;DHT22;57639;52.410;-1.966;2022-12-18T12:08:27;18.10;42.40
61591;DHT22;57639;52.410;-1.966;2022-12-18T12:11:47;18.10;42.40
61591;DHT22;57639;52.410;-1.966;2022-12-18T12:15:01;18.10;42.40
61591;DHT22;57639;52.410;-1.966;2022-12-18T12:18:17;18.10;42.20
61591;DHT22;57639;52.410;-1.966;2022-12-18T12:21:33;18.00;42.40
61591;DHT22;57639;52.410;-1.966;2022-12-18T12:24:54;17.90;42.40
61591;DHT22;57639;52.410;-1.966;2022-12-18T12:28:17;17.90;42.60
61591;DHT22;57639;52.410;-1.966;2022-12-18T12:31:31;17.80;42.70
61591;DHT22;57639;52.410;-1.966;2022-12-18T12:34:47;17.80;42.70
61591;DHT22;57639;52.410;-1.966;2022-12-18T12:38:05;17.80;42.70
61591;DHT22;57639;52.410;-1.966;2022-12-18T12:41:14;17.90;42.70
61591;DHT22;57639;52.410;-1.966;2022-12-18T12:44:51;17.90;42.60
61591;DHT22;57639;52.410;-1.966;2022-12-18T12:48:02;17.90;42.50
61591;DHT22;57639;52.410;-1.966;2022-12-18T12:51:12;17.90;42.50
61591;DHT22;57639;52.410;-1.966;2022-12-18T12:54:21;18.00;42.50
61591;DHT22;57639;52.410;-1.966;2022-12-18T12:57:33;18.00;42.40
61591;DHT22;57639;52.410;-1.966;2022-12-18T13:00:48;17.90;42.40
61591;DHT22;57639;52.410;-1.966;2022-12-18T13:04:01;18.00;42.40
61591;DHT22;57639;52.410;-1.966;2022-12-18T13:07:14;18.00;42.40
61591;DHT22;57639;52.410;-1.966;2022-12-18T13:10:33;18.00;42.20
61591;DHT22;57639;52.410;-1.966;2022-12-18T13:13:50;18.10;42.20
61591;DHT22;57639;52.410;-1.966;2022-12-18T13:17:14;18.10;42.20
61591;DHT22;57639;52.410;-1.966;2022-12-18T13:20:21;18.10;42.10
61591;DHT22;57639;52.410;-1.966;2022-12-18T13:23:31;18.20;41.90
61591;DHT22;57639;52.410;-1.966;2022-12-18T13:26:37;18.20;41.80
61591;DHT22;57639;52.410;-1.966;2022-12-18T13:29:43;18.20;41.60
61591;DHT22;57639;52.410;-1.966;2022-12-18T13:36:35;18.20;41.50
61591;DHT22;57639;52.410;-1.966;2022-12-18T13:39:41;18.20;41.50
61591;DHT22;57639;52.410;-1.966;2022-12-18T13:42:46;18.20;41.80
61591;DHT22;57639;52.410;-1.966;2022-12-18T13:46:23;18.20;41.50
61591;DHT22;57639;52.410;-1.966;2022-12-18T13:49:36;18.30;41.50
61591;DHT22;57639;52.410;-1.966;2022-12-18T13:52:44;18.30;41.40
61591;DHT22;57639;52.410;-1.966;2022-12-18T13:55:49;18.30;41.40
61591;DHT22;57639;52.410;-1.966;2022-12-18T13:59:20;18.30;41.40
61591;DHT22;57639;52.410;-1.966;2022-12-18T14:02:30;18.20;41.20
61591;DHT22;57639;52.410;-1.966;2022-12-18T14:05:39;18.20;41.30
61591;DHT22;57639;52.410;-1.966;2022-12-18T14:08:45;18.10;41.40
61591;DHT22;57639;52.410;-1.966;2022-12-18T14:11:51;18.10;41.40
61591;DHT22;57639;52.410;-1.966;2022-12-18T14:15:24;18.10;41.40
61591;DHT22;57639;52.410;-1.966;2022-12-18T14:18:38;18.10;41.40
61591;DHT22;57639;52.410;-1.966;2022-12-18T14:21:50;18.00;41.50
61591;DHT22;57639;52.410;-1.966;2022-12-18T14:25:10;17.80;41.60
61591;DHT22;57639;52.410;-1.966;2022-12-18T14:28:19;17.80;41.50
61591;DHT22;57639;52.410;-1.966;2022-12-18T14:31:25;17.80;41.50
61591;DHT22;57639;52.410;-1.966;2022-12-18T14:34:32;17.80;41.40
61591;DHT22;57639;52.410;-1.966;2022-12-18T14:37:39;17.80;41.50
61591;DHT22;57639;52.410;-1.966;2022-12-18T14:40:45;17.90;41.30
61591;DHT22;57639;52.410;-1.966;2022-12-18T14:43:50;18.00;41.20
61591;DHT22;57639;52.410;-1.966;2022-12-18T14:46:57;18.00;41.00
61591;DHT22;57639;52.410;-1.966;2022-12-18T14:50:01;18.10;40.60
61591;DHT22;57639;52.410;-1.966;2022-12-18T14:53:20;18.20;40.50
61591;DHT22;57639;52.410;-1.966;2022-12-18T14:56:27;18.30;40.30
61591;DHT22;57639;52.410;-1.966;2022-12-18T14:59:33;18.50;40.00
61591;DHT22;57639;52.410;-1.966;2022-12-18T15:02:37;18.60;39.80
61591;DHT22;57639;52.410;-1.966;2022-12-18T15:05:44;18.60;39.80
61591;DHT22;57639;52.410;-1.966;2022-12-18T15:08:51;18.60;39.80
61591;DHT22;57639;52.410;-1.966;2022-12-18T15:11:58;18.60;39.70
61591;DHT22;57639;52.410;-1.966;2022-12-18T15:15:03;18.60;39.70
61591;DHT22;57639;52.410;-1.966;2022-12-18T15:18:13;18.50;39.60
61591;DHT22;57639;52.410;-1.966;2022-12-18T15:21:19;18.50;39.80
61591;DHT22;57639;52.410;-1.966;2022-12-18T15:24:31;18.40;39.90
61591;DHT22;57639;52.410;-1.966;2022-12-18T15:27:36;18.40;39.90
61591;DHT22;57639;52.410;-1.966;2022-12-18T15:31:02;18.30;40.00
61591;DHT22;57639;52.410;-1.966;2022-12-18T15:34:13;18.20;40.30
61591;DHT22;57639;52.410;-1.966;2022-12-18T15:37:22;18.10;40.40
61591;DHT22;57639;52.410;-1.966;2022-12-18T15:40:29;18.10;40.40
61591;DHT22;57639;52.410;-1.966;2022-12-18T15:43:54;18.10;40.50
61591;DHT22;57639;52.410;-1.966;2022-12-18T15:47:00;18.00;40.60
61591;DHT22;57639;52.410;-1.966;2022-12-18T15:50:11;17.90;40.70
61591;DHT22;57639;52.410;-1.966;2022-12-18T15:53:20;17.80;40.70
61591;DHT22;57639;52.410;-1.966;2022-12-18T15:56:28;17.80;40.70
61591;DHT22;57639;52.410;-1.966;2022-12-18T15:59:51;17.70;40.90
61591;DHT22;57639;52.410;-1.966;2022-12-18T16:02:58;17.60;40.90
61591;DHT22;57639;52.410;-1.966;2022-12-18T16:06:09;17.60;41.20
61591;DHT22;57639;52.410;-1.966;2022-12-18T16:09:13;17.50;41.30
61591;DHT22;57639;52.410;-1.966;2022-12-18T16:12:27;17.40;41.50
61591;DHT22;57639;52.410;-1.966;2022-12-18T16:15:42;17.40;41.60
61591;DHT22;57639;52.410;-1.966;2022-12-18T16:18:54;17.30;41.60
61591;DHT22;57639;52.410;-1.966;2022-12-18T16:21:58;17.20;41.80
61591;DHT22;57639;52.410;-1.966;2022-12-18T16:25:05;17.20;41.90
61591;DHT22;57639;52.410;-1.966;2022-12-18T16:28:12;17.10;42.00
61591;DHT22;57639;52.410;-1.966;2022-12-18T16:31:18;17.10;42.20
61591;DHT22;57639;52.410;-1.966;2022-12-18T16:34:27;17.00;42.20
61591;DHT22;57639;52.410;-1.966;2022-12-18T16:37:36;17.00;42.20
61591;DHT22;57639;52.410;-1.966;2022-12-18T16:40:41;16.90;42.40
61591;DHT22;57639;52.410;-1.966;2022-12-18T16:44:11;16.80;42.50
61591;DHT22;57639;52.410;-1.966;2022-12-18T16:47:16;16.80;42.60
61591;DHT22;57639;52.410;-1.966;2022-12-18T16:50:23;16.80;42.60
61591;DHT22;57639;52.410;-1.966;2022-12-18T16:53:28;16.70;42.60
61591;DHT22;57639;52.410;-1.966;2022-12-18T16:56:39;16.70;42.60
61591;DHT22;57639;52.410;-1.966;2022-12-18T16:59:46;16.70;42.60
61591;DHT22;57639;52.410;-1.966;2022-12-18T17:02:55;16.60;42.80
61591;DHT22;57639;52.410;-1.966;2022-12-18T17:06:02;16.60;42.70
61591;DHT22;57639;52.410;-1.966;2022-12-18T17:09:11;16.60;42.90
61591;DHT22;57639;52.410;-1.966;2022-12-18T17:12:16;16.60;42.80
61591;DHT22;57639;52.410;-1.966;2022-12-18T17:15:28;16.60;43.00
61591;DHT22;57639;52.410;-1.966;2022-12-18T17:18:35;16.60;42.90
61591;DHT22;57639;52.410;-1.966;2022-12-18T17:21:42;16.70;42.90
61591;DHT22;57639;52.410;-1.966;2022-12-18T17:24:49;16.90;42.70
61591;DHT22;57639;52.410;-1.966;2022-12-18T17:27:55;17.10;42.40
61591;DHT22;57639;52.410;-1.966;2022-12-18T17:31:09;17.30;42.10
61591;DHT22;57639;52.410;-1.966;2022-12-18T17:34:15;17.60;41.80
61591;DHT22;57639;52.410;-1.966;2022-12-18T17:37:21;17.70;41.60
61591;DHT22;57639;52.410;-1.966;2022-12-18T17:40:28;17.90;41.30
61591;DHT22;57639;52.410;-1.966;2022-12-18T17:43:32;18.10;41.10
61591;DHT22;57639;52.410;-1.966;2022-12-18T17:46:43;18.20;40.70
61591;DHT22;57639;52.410;-1.966;2022-12-18T17:49:48;18.30;40.50
61591;DHT22;57639;52.410;-1.966;2022-12-18T17:52:57;18.50;40.40
61591;DHT22;57639;52.410;-1.966;2022-12-18T17:56:03;18.50;40.30
61591;DHT22;57639;52.410;-1.966;2022-12-18T17:59:10;18.60;40.20
61591;DHT22;57639;52.410;-1.966;2022-12-18T18:02:17;18.60;40.30
61591;DHT22;57639;52.410;-1.966;2022-12-18T18:05:23;18.60;40.20
61591;DHT22;57639;52.410;-1.966;2022-12-18T18:08:28;18.60;40.30
61591;DHT22;57639;52.410;-1.966;2022-12-18T18:11:34;18.60;40.40
61591;DHT22;57639;52.410;-1.966;2022-12-18T18:14:54;18.50;40.30
61591;DHT22;57639;52.410;-1.966;2022-12-18T18:18:07;18.40;40.50
61591;DHT22;57639;52.410;-1.966;2022-12-18T18:21:11;18.40;40.60
61591;DHT22;57639;52.410;-1.966;2022-12-18T18:24:20;18.30;40.80
61591;DHT22;57639;52.410;-1.966;2022-12-18T18:27:25;18.20;40.90
61591;DHT22;57639;52.410;-1.966;2022-12-18T18:30:35;18.10;40.80
61591;DHT22;57639;52.410;-1.966;2022-12-18T18:33:42;18.10;41.10
61591;DHT22;57639;52.410;-1.966;2022-12-18T18:36:54;18.10;41.20
61591;DHT22;57639;52.410;-1.966;2022-12-18T18:40:00;18.00;41.30
61591;DHT22;57639;52.410;-1.966;2022-12-18T18:43:06;17.90;41.50
61591;DHT22;57639;52.410;-1.966;2022-12-18T18:46:15;17.90;41.40
61591;DHT22;57639;52.410;-1.966;2022-12-18T18:49:31;18.00;41.30
61591;DHT22;57639;52.410;-1.966;2022-12-18T18:52:35;18.00;41.40
61591;DHT22;57639;52.410;-1.966;2022-12-18T18:55:43;18.10;41.20
61591;DHT22;57639;52.410;-1.966;2022-12-18T18:58:48;18.10;41.10
61591;DHT22;57639;52.410;-1.966;2022-12-18T19:01:54;18.30;41.10
61591;DHT22;57639;52.410;-1.966;2022-12-18T19:05:05;18.40;41.00
61591;DHT22;57639;52.410;-1.966;2022-12-18T19:08:09;18.50;40.90
61591;DHT22;57639;52.410;-1.966;2022-12-18T19:11:16;18.60;40.70
61591;DHT22;57639;52.410;-1.966;2022-12-18T19:14:35;18.70;40.60
61591;DHT22;57639;52.410;-1.966;2022-12-18T19:17:42;18.70;40.60
61591;DHT22;57639;52.410;-1.966;2022-12-18T19:20:57;18.80;40.50
61591;DHT22;57639;52.410;-1.966;2022-12-18T19:24:04;18.80;40.50
61591;DHT22;57639;52.410;-1.966;2022-12-18T19:27:09;18.70;40.60
61591;DHT22;57639;52.410;-1.966;2022-12-18T19:30:17;18.70;40.60
61591;DHT22;57639;52.410;-1.966;2022-12-18T19:33:22;18.70;40.60
61591;DHT22;57639;52.410;-1.966;2022-12-18T19:36:32;18.70;40.60
61591;DHT22;57639;52.410;-1.966;2022-12-18T19:39:39;18.70;40.80
61591;DHT22;57639;52.410;-1.966;2022-12-18T19:42:45;18.60;40.90